Weather at Aviosuperficie Pravisdomini

Public forecast

Using degrees Celsius for public forecast. Weather courtesy of forecast.io.

Closest aviation weather report (METAR) to Aviosuperficie Pravisdomini

Closest report is Aviano Air Base, 13.0 nm (24.1 km) NNW.

2024/05/21 14:55 (retrieved 1 hour ago)

LIPA 211455Z 30004KT 9000 4000N -RA FEW010 SCT015 BKN030 16/14 Q1006

Closest aviation forecast (TAF) to Aviosuperficie Pravisdomini

Closest forecast is Treviso Antonio Canova Airport, 23.1 nm (42.8 km) WSW.

2024/05/21 12:00 (retrieved 4 hours ago)

TAF LIPH 211100Z 2112/2212 VRB05KT 9999 SCT030 TEMPO 2112/2117 3000 TSRA BKN008 BECMG 2113/2115 22010KT BECMG 2122/2124 VRB05KT TEMPO 2200/2206 1200 BCFG TEMPO 2208/2212 3000 TSRA